sensor_id;sensor_type;location;lat;lon;timestamp;P1;durP1;ratioP1;P2;durP2;ratioP2
77174;SDS011;66153;53.488;10.244;2023-02-23T00:02:15;32.63;;;13.27;;
77174;SDS011;66153;53.488;10.244;2023-02-23T00:04:41;31.65;;;12.95;;
77174;SDS011;66153;53.488;10.244;2023-02-23T00:07:07;30.77;;;11.88;;
77174;SDS011;66153;53.488;10.244;2023-02-23T00:09:34;32.33;;;12.48;;
77174;SDS011;66153;53.488;10.244;2023-02-23T00:12:00;29.95;;;11.48;;
77174;SDS011;66153;53.488;10.244;2023-02-23T00:14:32;34.47;;;13.52;;
77174;SDS011;66153;53.488;10.244;2023-02-23T00:16:58;29.58;;;12.05;;
77174;SDS011;66153;53.488;10.244;2023-02-23T00:19:24;27.83;;;12.10;;
77174;SDS011;66153;53.488;10.244;2023-02-23T00:21:50;30.95;;;11.88;;
77174;SDS011;66153;53.488;10.244;2023-02-23T00:24:16;33.15;;;12.45;;
77174;SDS011;66153;53.488;10.244;2023-02-23T00:26:47;33.40;;;13.25;;
77174;SDS011;66153;53.488;10.244;2023-02-23T00:29:19;28.70;;;12.68;;
77174;SDS011;66153;53.488;10.244;2023-02-23T00:31:46;32.63;;;12.75;;
77174;SDS011;66153;53.488;10.244;2023-02-23T00:34:13;30.42;;;12.73;;
77174;SDS011;66153;53.488;10.244;2023-02-23T00:36:40;26.38;;;12.25;;
77174;SDS011;66153;53.488;10.244;2023-02-23T00:39:07;35.60;;;13.75;;
77174;SDS011;66153;53.488;10.244;2023-02-23T00:41:45;33.58;;;12.25;;
77174;SDS011;66153;53.488;10.244;2023-02-23T00:44:11;33.38;;;13.05;;
77174;SDS011;66153;53.488;10.244;2023-02-23T00:46:39;29.52;;;12.50;;
77174;SDS011;66153;53.488;10.244;2023-02-23T00:49:08;35.35;;;13.02;;
77174;SDS011;66153;53.488;10.244;2023-02-23T00:51:34;33.00;;;12.88;;
77174;SDS011;66153;53.488;10.244;2023-02-23T00:54:01;34.38;;;12.05;;
77174;SDS011;66153;53.488;10.244;2023-02-23T00:56:27;27.75;;;11.40;;
77174;SDS011;66153;53.488;10.244;2023-02-23T00:58:53;31.88;;;12.93;;
77174;SDS011;66153;53.488;10.244;2023-02-23T01:01:19;31.77;;;13.05;;
77174;SDS011;66153;53.488;10.244;2023-02-23T01:03:45;36.97;;;13.55;;
77174;SDS011;66153;53.488;10.244;2023-02-23T01:06:12;33.78;;;12.70;;
77174;SDS011;66153;53.488;10.244;2023-02-23T01:11:05;30.63;;;12.43;;
77174;SDS011;66153;53.488;10.244;2023-02-23T01:13:33;31.08;;;13.07;;
77174;SDS011;66153;53.488;10.244;2023-02-23T01:15:59;34.65;;;12.95;;
77174;SDS011;66153;53.488;10.244;2023-02-23T01:18:25;29.00;;;11.68;;
77174;SDS011;66153;53.488;10.244;2023-02-23T01:20:51;35.17;;;12.75;;
77174;SDS011;66153;53.488;10.244;2023-02-23T01:23:18;31.63;;;12.45;;
77174;SDS011;66153;53.488;10.244;2023-02-23T01:25:44;32.75;;;12.07;;
77174;SDS011;66153;53.488;10.244;2023-02-23T01:28:11;35.70;;;13.80;;
77174;SDS011;66153;53.488;10.244;2023-02-23T01:30:38;34.75;;;13.20;;
77174;SDS011;66153;53.488;10.244;2023-02-23T01:33:04;31.88;;;12.20;;
77174;SDS011;66153;53.488;10.244;2023-02-23T01:35:31;28.17;;;12.80;;
77174;SDS011;66153;53.488;10.244;2023-02-23T01:38:00;30.45;;;12.98;;
77174;SDS011;66153;53.488;10.244;2023-02-23T01:40:27;34.05;;;13.57;;
77174;SDS011;66153;53.488;10.244;2023-02-23T01:43:15;32.78;;;13.45;;
77174;SDS011;66153;53.488;10.244;2023-02-23T01:45:40;33.55;;;13.45;;
77174;SDS011;66153;53.488;10.244;2023-02-23T01:48:16;32.15;;;12.38;;
77174;SDS011;66153;53.488;10.244;2023-02-23T01:50:46;33.63;;;13.60;;
77174;SDS011;66153;53.488;10.244;2023-02-23T01:53:13;34.60;;;13.00;;
77174;SDS011;66153;53.488;10.244;2023-02-23T01:55:40;34.58;;;12.85;;
77174;SDS011;66153;53.488;10.244;2023-02-23T01:58:07;33.33;;;12.77;;
77174;SDS011;66153;53.488;10.244;2023-02-23T02:00:39;31.95;;;12.77;;
77174;SDS011;66153;53.488;10.244;2023-02-23T02:03:06;32.63;;;13.05;;
77174;SDS011;66153;53.488;10.244;2023-02-23T02:05:36;36.20;;;13.25;;
77174;SDS011;66153;53.488;10.244;2023-02-23T02:08:03;34.28;;;13.10;;
77174;SDS011;66153;53.488;10.244;2023-02-23T02:13:10;28.50;;;11.75;;
77174;SDS011;66153;53.488;10.244;2023-02-23T02:16:04;32.75;;;12.15;;
77174;SDS011;66153;53.488;10.244;2023-02-23T02:36:21;32.13;;;13.23;;
77174;SDS011;66153;53.488;10.244;2023-02-23T02:44:41;34.08;;;12.13;;
77174;SDS011;66153;53.488;10.244;2023-02-23T02:47:00;33.88;;;13.23;;
77174;SDS011;66153;53.488;10.244;2023-02-23T02:49:30;34.03;;;12.98;;
77174;SDS011;66153;53.488;10.244;2023-02-23T02:51:59;32.13;;;12.57;;
77174;SDS011;66153;53.488;10.244;2023-02-23T02:54:30;31.88;;;12.45;;
77174;SDS011;66153;53.488;10.244;2023-02-23T02:56:59;33.95;;;12.98;;
77174;SDS011;66153;53.488;10.244;2023-02-23T02:59:28;35.17;;;13.38;;
77174;SDS011;66153;53.488;10.244;2023-02-23T03:02:14;37.88;;;12.95;;
77174;SDS011;66153;53.488;10.244;2023-02-23T03:04:59;34.72;;;12.55;;
77174;SDS011;66153;53.488;10.244;2023-02-23T03:07:48;34.00;;;12.13;;
77174;SDS011;66153;53.488;10.244;2023-02-23T03:16:30;38.50;;;13.23;;
77174;SDS011;66153;53.488;10.244;2023-02-23T03:19:16;41.20;;;13.85;;
77174;SDS011;66153;53.488;10.244;2023-02-23T03:25:00;30.88;;;11.88;;
77174;SDS011;66153;53.488;10.244;2023-02-23T03:27:56;35.13;;;12.15;;
77174;SDS011;66153;53.488;10.244;2023-02-23T03:36:25;36.25;;;13.52;;
77174;SDS011;66153;53.488;10.244;2023-02-23T03:42:01;35.03;;;12.20;;
77174;SDS011;66153;53.488;10.244;2023-02-23T03:44:47;40.88;;;14.38;;
77174;SDS011;66153;53.488;10.244;2023-02-23T03:47:34;43.05;;;13.32;;
77174;SDS011;66153;53.488;10.244;2023-02-23T03:50:27;37.55;;;13.70;;
77174;SDS011;66153;53.488;10.244;2023-02-23T03:55:57;38.85;;;13.13;;
77174;SDS011;66153;53.488;10.244;2023-02-23T03:58:45;39.13;;;13.25;;
77174;SDS011;66153;53.488;10.244;2023-02-23T04:01:30;43.95;;;14.00;;
77174;SDS011;66153;53.488;10.244;2023-02-23T04:04:16;37.53;;;13.45;;
77174;SDS011;66153;53.488;10.244;2023-02-23T04:07:01;41.60;;;13.18;;
77174;SDS011;66153;53.488;10.244;2023-02-23T04:09:47;38.08;;;13.52;;
77174;SDS011;66153;53.488;10.244;2023-02-23T04:12:33;38.67;;;13.77;;
77174;SDS011;66153;53.488;10.244;2023-02-23T04:15:25;36.08;;;13.82;;
77174;SDS011;66153;53.488;10.244;2023-02-23T04:17:53;43.55;;;14.85;;
77174;SDS011;66153;53.488;10.244;2023-02-23T04:20:20;45.85;;;15.30;;
77174;SDS011;66153;53.488;10.244;2023-02-23T04:22:46;38.70;;;14.23;;
77174;SDS011;66153;53.488;10.244;2023-02-23T04:25:13;41.72;;;14.55;;
77174;SDS011;66153;53.488;10.244;2023-02-23T04:27:39;45.75;;;14.45;;
77174;SDS011;66153;53.488;10.244;2023-02-23T04:30:05;42.58;;;14.13;;
77174;SDS011;66153;53.488;10.244;2023-02-23T04:32:31;42.22;;;15.05;;
77174;SDS011;66153;53.488;10.244;2023-02-23T04:34:57;38.90;;;15.10;;
77174;SDS011;66153;53.488;10.244;2023-02-23T04:37:23;42.38;;;15.57;;
77174;SDS011;66153;53.488;10.244;2023-02-23T04:39:49;44.30;;;14.45;;
77174;SDS011;66153;53.488;10.244;2023-02-23T04:42:16;42.25;;;13.50;;
77174;SDS011;66153;53.488;10.244;2023-02-23T04:44:42;41.42;;;14.93;;
77174;SDS011;66153;53.488;10.244;2023-02-23T04:47:08;45.97;;;15.65;;
77174;SDS011;66153;53.488;10.244;2023-02-23T04:49:34;48.45;;;14.18;;
77174;SDS011;66153;53.488;10.244;2023-02-23T04:52:00;45.47;;;15.07;;
77174;SDS011;66153;53.488;10.244;2023-02-23T04:54:26;47.38;;;14.00;;
77174;SDS011;66153;53.488;10.244;2023-02-23T04:56:52;47.15;;;16.08;;
77174;SDS011;66153;53.488;10.244;2023-02-23T04:59:18;49.35;;;14.23;;
77174;SDS011;66153;53.488;10.244;2023-02-23T05:01:44;49.92;;;15.02;;
77174;SDS011;66153;53.488;10.244;2023-02-23T05:04:10;45.53;;;14.93;;
77174;SDS011;66153;53.488;10.244;2023-02-23T05:06:36;46.83;;;14.35;;
77174;SDS011;66153;53.488;10.244;2023-02-23T05:09:02;50.00;;;14.85;;
77174;SDS011;66153;53.488;10.244;2023-02-23T05:11:30;49.05;;;14.48;;
77174;SDS011;66153;53.488;10.244;2023-02-23T05:13:56;50.38;;;16.75;;
77174;SDS011;66153;53.488;10.244;2023-02-23T05:16:22;41.17;;;14.77;;
77174;SDS011;66153;53.488;10.244;2023-02-23T05:18:48;44.35;;;15.02;;
77174;SDS011;66153;53.488;10.244;2023-02-23T05:21:14;44.65;;;15.10;;
77174;SDS011;66153;53.488;10.244;2023-02-23T05:23:40;45.03;;;16.02;;
77174;SDS011;66153;53.488;10.244;2023-02-23T05:26:08;49.80;;;15.93;;
77174;SDS011;66153;53.488;10.244;2023-02-23T05:28:34;48.63;;;15.88;;
77174;SDS011;66153;53.488;10.244;2023-02-23T05:31:01;46.67;;;15.15;;
77174;SDS011;66153;53.488;10.244;2023-02-23T05:33:27;49.33;;;15.20;;
77174;SDS011;66153;53.488;10.244;2023-02-23T05:35:53;51.38;;;15.85;;
77174;SDS011;66153;53.488;10.244;2023-02-23T05:38:20;49.65;;;15.40;;
77174;SDS011;66153;53.488;10.244;2023-02-23T05:40:46;49.30;;;15.40;;
77174;SDS011;66153;53.488;10.244;2023-02-23T05:43:12;49.22;;;14.95;;
77174;SDS011;66153;53.488;10.244;2023-02-23T05:45:39;47.25;;;15.90;;
77174;SDS011;66153;53.488;10.244;2023-02-23T05:48:05;43.47;;;15.43;;
77174;SDS011;66153;53.488;10.244;2023-02-23T05:50:31;38.63;;;14.10;;
77174;SDS011;66153;53.488;10.244;2023-02-23T05:52:57;43.47;;;14.25;;
77174;SDS011;66153;53.488;10.244;2023-02-23T05:55:24;49.05;;;15.13;;
77174;SDS011;66153;53.488;10.244;2023-02-23T05:57:50;45.55;;;15.52;;
77174;SDS011;66153;53.488;10.244;2023-02-23T06:00:16;52.70;;;15.02;;
77174;SDS011;66153;53.488;10.244;2023-02-23T06:02:42;42.00;;;15.05;;
77174;SDS011;66153;53.488;10.244;2023-02-23T06:05:09;56.55;;;16.55;;
77174;SDS011;66153;53.488;10.244;2023-02-23T06:07:35;45.58;;;14.82;;
77174;SDS011;66153;53.488;10.244;2023-02-23T06:10:01;46.45;;;14.63;;
77174;SDS011;66153;53.488;10.244;2023-02-23T06:12:27;47.40;;;15.15;;
77174;SDS011;66153;53.488;10.244;2023-02-23T06:14:53;42.63;;;13.88;;
77174;SDS011;66153;53.488;10.244;2023-02-23T06:17:19;57.80;;;16.63;;
77174;SDS011;66153;53.488;10.244;2023-02-23T06:19:45;50.63;;;15.27;;
77174;SDS011;66153;53.488;10.244;2023-02-23T06:22:11;39.88;;;14.63;;
77174;SDS011;66153;53.488;10.244;2023-02-23T06:24:38;56.30;;;15.63;;
77174;SDS011;66153;53.488;10.244;2023-02-23T06:27:04;49.38;;;15.65;;
77174;SDS011;66153;53.488;10.244;2023-02-23T06:29:31;47.25;;;15.18;;
77174;SDS011;66153;53.488;10.244;2023-02-23T06:31:58;47.40;;;16.00;;
77174;SDS011;66153;53.488;10.244;2023-02-23T06:34:24;47.47;;;15.70;;
77174;SDS011;66153;53.488;10.244;2023-02-23T06:36:50;46.40;;;16.35;;
77174;SDS011;66153;53.488;10.244;2023-02-23T06:39:16;48.53;;;15.95;;
77174;SDS011;66153;53.488;10.244;2023-02-23T06:41:42;45.47;;;16.27;;
77174;SDS011;66153;53.488;10.244;2023-02-23T06:44:08;47.45;;;16.67;;
77174;SDS011;66153;53.488;10.244;2023-02-23T06:46:33;47.67;;;16.50;;
77174;SDS011;66153;53.488;10.244;2023-02-23T06:49:00;49.53;;;16.02;;
77174;SDS011;66153;53.488;10.244;2023-02-23T06:51:26;56.08;;;17.58;;
77174;SDS011;66153;53.488;10.244;2023-02-23T06:53:52;50.28;;;16.05;;
77174;SDS011;66153;53.488;10.244;2023-02-23T06:56:18;50.08;;;16.48;;
77174;SDS011;66153;53.488;10.244;2023-02-23T06:58:44;49.63;;;16.58;;
77174;SDS011;66153;53.488;10.244;2023-02-23T07:01:10;43.85;;;16.15;;
77174;SDS011;66153;53.488;10.244;2023-02-23T07:03:36;45.85;;;15.55;;
77174;SDS011;66153;53.488;10.244;2023-02-23T07:06:02;49.17;;;16.13;;
77174;SDS011;66153;53.488;10.244;2023-02-23T07:08:29;46.97;;;15.80;;
77174;SDS011;66153;53.488;10.244;2023-02-23T07:10:55;40.00;;;14.07;;
77174;SDS011;66153;53.488;10.244;2023-02-23T07:13:22;46.13;;;17.10;;
77174;SDS011;66153;53.488;10.244;2023-02-23T07:15:48;46.17;;;16.50;;
77174;SDS011;66153;53.488;10.244;2023-02-23T07:18:14;40.83;;;14.70;;
77174;SDS011;66153;53.488;10.244;2023-02-23T07:20:40;45.63;;;15.77;;
77174;SDS011;66153;53.488;10.244;2023-02-23T07:23:06;52.75;;;16.08;;
77174;SDS011;66153;53.488;10.244;2023-02-23T07:25:32;46.75;;;16.88;;
77174;SDS011;66153;53.488;10.244;2023-02-23T07:27:59;45.75;;;16.15;;
77174;SDS011;66153;53.488;10.244;2023-02-23T07:30:25;46.42;;;15.55;;
77174;SDS011;66153;53.488;10.244;2023-02-23T07:32:51;48.03;;;16.98;;
77174;SDS011;66153;53.488;10.244;2023-02-23T07:35:20;47.30;;;15.98;;
77174;SDS011;66153;53.488;10.244;2023-02-23T07:37:47;48.05;;;16.45;;
77174;SDS011;66153;53.488;10.244;2023-02-23T07:40:16;45.58;;;17.10;;
77174;SDS011;66153;53.488;10.244;2023-02-23T07:42:43;67.90;;;17.17;;
77174;SDS011;66153;53.488;10.244;2023-02-23T07:45:09;55.50;;;15.98;;
77174;SDS011;66153;53.488;10.244;2023-02-23T07:47:48;48.80;;;16.50;;
77174;SDS011;66153;53.488;10.244;2023-02-23T07:50:21;54.03;;;16.50;;
77174;SDS011;66153;53.488;10.244;2023-02-23T07:52:48;56.13;;;17.48;;
77174;SDS011;66153;53.488;10.244;2023-02-23T07:55:18;49.22;;;17.00;;
77174;SDS011;66153;53.488;10.244;2023-02-23T07:57:44;52.70;;;16.30;;
77174;SDS011;66153;53.488;10.244;2023-02-23T08:00:11;45.45;;;15.90;;
77174;SDS011;66153;53.488;10.244;2023-02-23T08:02:37;46.83;;;16.40;;
77174;SDS011;66153;53.488;10.244;2023-02-23T08:05:03;46.67;;;16.38;;
77174;SDS011;66153;53.488;10.244;2023-02-23T08:07:32;44.70;;;15.20;;
77174;SDS011;66153;53.488;10.244;2023-02-23T08:09:58;52.10;;;17.40;;
77174;SDS011;66153;53.488;10.244;2023-02-23T08:12:25;49.25;;;17.17;;
77174;SDS011;66153;53.488;10.244;2023-02-23T08:14:51;47.42;;;17.58;;
77174;SDS011;66153;53.488;10.244;2023-02-23T08:17:18;49.47;;;16.33;;
77174;SDS011;66153;53.488;10.244;2023-02-23T08:19:44;52.05;;;16.65;;
77174;SDS011;66153;53.488;10.244;2023-02-23T08:22:11;55.08;;;17.08;;
77174;SDS011;66153;53.488;10.244;2023-02-23T08:24:37;53.75;;;19.00;;
77174;SDS011;66153;53.488;10.244;2023-02-23T08:27:06;58.03;;;18.85;;
77174;SDS011;66153;53.488;10.244;2023-02-23T08:29:36;46.22;;;16.52;;
77174;SDS011;66153;53.488;10.244;2023-02-23T08:32:03;50.13;;;17.65;;
77174;SDS011;66153;53.488;10.244;2023-02-23T08:34:29;56.33;;;18.75;;
77174;SDS011;66153;53.488;10.244;2023-02-23T08:36:55;52.85;;;17.88;;
77174;SDS011;66153;53.488;10.244;2023-02-23T08:39:21;53.63;;;17.88;;
77174;SDS011;66153;53.488;10.244;2023-02-23T08:41:48;52.63;;;18.23;;
77174;SDS011;66153;53.488;10.244;2023-02-23T08:44:14;49.85;;;18.50;;
77174;SDS011;66153;53.488;10.244;2023-02-23T08:46:40;43.08;;;16.67;;
77174;SDS011;66153;53.488;10.244;2023-02-23T08:49:12;54.92;;;19.95;;
77174;SDS011;66153;53.488;10.244;2023-02-23T08:51:44;47.53;;;18.08;;
77174;SDS011;66153;53.488;10.244;2023-02-23T08:54:11;51.70;;;18.85;;
77174;SDS011;66153;53.488;10.244;2023-02-23T08:56:42;46.03;;;19.48;;
77174;SDS011;66153;53.488;10.244;2023-02-23T08:59:12;56.58;;;21.38;;
77174;SDS011;66153;53.488;10.244;2023-02-23T09:01:38;49.70;;;18.15;;
77174;SDS011;66153;53.488;10.244;2023-02-23T09:04:09;44.00;;;16.70;;
77174;SDS011;66153;53.488;10.244;2023-02-23T09:06:35;48.33;;;18.80;;
77174;SDS011;66153;53.488;10.244;2023-02-23T09:09:08;45.35;;;18.38;;
77174;SDS011;66153;53.488;10.244;2023-02-23T09:11:34;50.55;;;17.92;;
77174;SDS011;66153;53.488;10.244;2023-02-23T09:14:00;47.22;;;18.02;;
77174;SDS011;66153;53.488;10.244;2023-02-23T09:16:26;46.25;;;18.40;;
77174;SDS011;66153;53.488;10.244;2023-02-23T09:18:52;48.28;;;18.77;;
77174;SDS011;66153;53.488;10.244;2023-02-23T09:21:19;53.80;;;19.60;;
77174;SDS011;66153;53.488;10.244;2023-02-23T09:23:49;48.15;;;18.77;;
77174;SDS011;66153;53.488;10.244;2023-02-23T09:26:17;42.72;;;19.35;;
77174;SDS011;66153;53.488;10.244;2023-02-23T09:28:44;46.60;;;19.42;;
77174;SDS011;66153;53.488;10.244;2023-02-23T09:31:14;42.08;;;18.33;;
77174;SDS011;66153;53.488;10.244;2023-02-23T09:33:40;44.50;;;19.63;;
77174;SDS011;66153;53.488;10.244;2023-02-23T09:38:45;45.67;;;18.63;;
77174;SDS011;66153;53.488;10.244;2023-02-23T09:44:05;38.47;;;15.82;;
77174;SDS011;66153;53.488;10.244;2023-02-23T09:49:03;32.63;;;14.82;;
77174;SDS011;66153;53.488;10.244;2023-02-23T09:51:42;36.00;;;16.80;;
77174;SDS011;66153;53.488;10.244;2023-02-23T09:54:10;36.42;;;15.75;;
77174;SDS011;66153;53.488;10.244;2023-02-23T09:56:45;38.35;;;16.67;;
77174;SDS011;66153;53.488;10.244;2023-02-23T09:59:13;33.42;;;15.43;;
77174;SDS011;66153;53.488;10.244;2023-02-23T10:06:38;38.42;;;17.10;;
77174;SDS011;66153;53.488;10.244;2023-02-23T10:22:08;45.97;;;19.45;;
77174;SDS011;66153;53.488;10.244;2023-02-23T10:24:39;45.67;;;19.00;;
77174;SDS011;66153;53.488;10.244;2023-02-23T10:27:09;53.03;;;21.25;;
77174;SDS011;66153;53.488;10.244;2023-02-23T10:29:41;52.95;;;19.77;;
77174;SDS011;66153;53.488;10.244;2023-02-23T10:32:17;52.25;;;21.38;;
77174;SDS011;66153;53.488;10.244;2023-02-23T10:34:51;59.83;;;21.40;;
77174;SDS011;66153;53.488;10.244;2023-02-23T10:37:18;63.10;;;21.25;;
77174;SDS011;66153;53.488;10.244;2023-02-23T10:39:44;66.93;;;22.67;;
77174;SDS011;66153;53.488;10.244;2023-02-23T10:42:15;69.60;;;23.77;;
77174;SDS011;66153;53.488;10.244;2023-02-23T10:44:42;79.38;;;24.75;;
77174;SDS011;66153;53.488;10.244;2023-02-23T10:47:16;79.88;;;24.92;;
77174;SDS011;66153;53.488;10.244;2023-02-23T10:49:44;71.25;;;22.90;;
77174;SDS011;66153;53.488;10.244;2023-02-23T10:54:45;77.10;;;23.63;;
77174;SDS011;66153;53.488;10.244;2023-02-23T10:57:18;78.07;;;23.52;;
77174;SDS011;66153;53.488;10.244;2023-02-23T11:02:30;75.13;;;23.55;;
77174;SDS011;66153;53.488;10.244;2023-02-23T11:04:57;70.43;;;22.88;;
77174;SDS011;66153;53.488;10.244;2023-02-23T11:07:27;66.68;;;21.88;;
77174;SDS011;66153;53.488;10.244;2023-02-23T11:09:56;75.47;;;24.98;;
77174;SDS011;66153;53.488;10.244;2023-02-23T11:14:50;79.22;;;24.55;;
77174;SDS011;66153;53.488;10.244;2023-02-23T11:17:35;73.75;;;23.23;;
77174;SDS011;66153;53.488;10.244;2023-02-23T11:20:05;69.82;;;22.75;;
77174;SDS011;66153;53.488;10.244;2023-02-23T11:22:35;71.72;;;22.17;;
77174;SDS011;66153;53.488;10.244;2023-02-23T11:25:02;70.55;;;23.25;;
77174;SDS011;66153;53.488;10.244;2023-02-23T11:27:37;79.55;;;23.25;;
77174;SDS011;66153;53.488;10.244;2023-02-23T11:30:03;73.32;;;21.52;;
77174;SDS011;66153;53.488;10.244;2023-02-23T11:32:36;70.43;;;22.23;;
77174;SDS011;66153;53.488;10.244;2023-02-23T11:35:26;70.85;;;20.90;;
77174;SDS011;66153;53.488;10.244;2023-02-23T11:37:52;82.80;;;22.52;;
77174;SDS011;66153;53.488;10.244;2023-02-23T11:40:21;81.03;;;23.05;;
77174;SDS011;66153;53.488;10.244;2023-02-23T11:43:13;71.68;;;21.23;;
77174;SDS011;66153;53.488;10.244;2023-02-23T11:45:49;68.00;;;20.77;;
77174;SDS011;66153;53.488;10.244;2023-02-23T11:48:33;81.93;;;23.70;;
77174;SDS011;66153;53.488;10.244;2023-02-23T11:51:02;70.90;;;21.77;;
77174;SDS011;66153;53.488;10.244;2023-02-23T11:53:36;78.57;;;20.77;;
77174;SDS011;66153;53.488;10.244;2023-02-23T11:56:09;86.43;;;24.20;;
77174;SDS011;66153;53.488;10.244;2023-02-23T11:58:46;81.93;;;24.02;;
77174;SDS011;66153;53.488;10.244;2023-02-23T12:01:19;74.32;;;21.95;;
77174;SDS011;66153;53.488;10.244;2023-02-23T12:03:50;70.88;;;20.70;;
77174;SDS011;66153;53.488;10.244;2023-02-23T12:06:33;70.45;;;18.23;;
77174;SDS011;66153;53.488;10.244;2023-02-23T12:09:19;73.88;;;20.27;;
77174;SDS011;66153;53.488;10.244;2023-02-23T12:12:05;65.68;;;18.63;;
77174;SDS011;66153;53.488;10.244;2023-02-23T12:17:22;58.92;;;19.05;;
77174;SDS011;66153;53.488;10.244;2023-02-23T12:20:02;66.60;;;19.80;;
77174;SDS011;66153;53.488;10.244;2023-02-23T12:22:34;55.40;;;17.63;;
77174;SDS011;66153;53.488;10.244;2023-02-23T12:25:04;64.38;;;19.92;;
77174;SDS011;66153;53.488;10.244;2023-02-23T12:40:28;59.25;;;17.88;;
77174;SDS011;66153;53.488;10.244;2023-02-23T12:43:13;62.72;;;18.50;;
77174;SDS011;66153;53.488;10.244;2023-02-23T12:45:57;64.18;;;19.80;;
77174;SDS011;66153;53.488;10.244;2023-02-23T12:48:29;64.25;;;20.90;;
77174;SDS011;66153;53.488;10.244;2023-02-23T12:50:56;65.75;;;19.48;;
77174;SDS011;66153;53.488;10.244;2023-02-23T12:53:39;68.85;;;19.58;;
77174;SDS011;66153;53.488;10.244;2023-02-23T13:01:05;56.80;;;18.33;;
77174;SDS011;66153;53.488;10.244;2023-02-23T13:03:40;57.60;;;16.95;;
77174;SDS011;66153;53.488;10.244;2023-02-23T13:08:57;56.60;;;18.48;;
77174;SDS011;66153;53.488;10.244;2023-02-23T13:14:11;51.10;;;17.92;;
77174;SDS011;66153;53.488;10.244;2023-02-23T13:16:41;54.33;;;17.00;;
77174;SDS011;66153;53.488;10.244;2023-02-23T13:19:29;52.17;;;16.08;;
77174;SDS011;66153;53.488;10.244;2023-02-23T13:21:57;51.78;;;16.60;;
77174;SDS011;66153;53.488;10.244;2023-02-23T13:24:26;54.67;;;16.25;;
77174;SDS011;66153;53.488;10.244;2023-02-23T13:31:59;55.20;;;18.33;;
77174;SDS011;66153;53.488;10.244;2023-02-23T13:34:32;53.70;;;16.10;;
77174;SDS011;66153;53.488;10.244;2023-02-23T13:37:01;51.75;;;17.08;;
77174;SDS011;66153;53.488;10.244;2023-02-23T13:44:47;55.03;;;16.25;;
77174;SDS011;66153;53.488;10.244;2023-02-23T13:50:19;58.33;;;18.52;;
77174;SDS011;66153;53.488;10.244;2023-02-23T13:52:47;51.22;;;15.50;;
77174;SDS011;66153;53.488;10.244;2023-02-23T13:57:52;51.47;;;15.55;;
77174;SDS011;66153;53.488;10.244;2023-02-23T14:00:18;53.08;;;16.67;;
77174;SDS011;66153;53.488;10.244;2023-02-23T14:02:45;49.47;;;14.98;;
77174;SDS011;66153;53.488;10.244;2023-02-23T14:07:41;48.08;;;15.15;;
77174;SDS011;66153;53.488;10.244;2023-02-23T14:10:13;49.55;;;14.48;;
77174;SDS011;66153;53.488;10.244;2023-02-23T14:12:41;45.88;;;15.35;;
77174;SDS011;66153;53.488;10.244;2023-02-23T14:17:55;52.35;;;15.43;;
77174;SDS011;66153;53.488;10.244;2023-02-23T14:20:35;46.38;;;13.73;;
77174;SDS011;66153;53.488;10.244;2023-02-23T14:23:04;51.75;;;14.68;;
77174;SDS011;66153;53.488;10.244;2023-02-23T14:33:58;49.35;;;15.43;;
77174;SDS011;66153;53.488;10.244;2023-02-23T14:41:21;50.53;;;13.75;;
77174;SDS011;66153;53.488;10.244;2023-02-23T14:43:49;42.35;;;12.35;;
77174;SDS011;66153;53.488;10.244;2023-02-23T14:46:19;42.63;;;12.52;;
77174;SDS011;66153;53.488;10.244;2023-02-23T14:48:54;34.47;;;11.68;;
77174;SDS011;66153;53.488;10.244;2023-02-23T14:51:24;41.08;;;12.07;;
77174;SDS011;66153;53.488;10.244;2023-02-23T14:53:51;39.05;;;12.07;;
77174;SDS011;66153;53.488;10.244;2023-02-23T14:56:21;42.50;;;12.63;;
77174;SDS011;66153;53.488;10.244;2023-02-23T14:58:51;36.75;;;11.82;;
77174;SDS011;66153;53.488;10.244;2023-02-23T15:01:36;32.40;;;10.05;;
77174;SDS011;66153;53.488;10.244;2023-02-23T15:04:07;29.98;;;9.43;;
77174;SDS011;66153;53.488;10.244;2023-02-23T15:06:34;27.80;;;9.43;;
77174;SDS011;66153;53.488;10.244;2023-02-23T15:09:00;24.85;;;8.18;;
77174;SDS011;66153;53.488;10.244;2023-02-23T15:11:26;26.70;;;8.98;;
77174;SDS011;66153;53.488;10.244;2023-02-23T15:13:55;26.25;;;9.65;;
77174;SDS011;66153;53.488;10.244;2023-02-23T15:16:29;26.42;;;9.50;;
77174;SDS011;66153;53.488;10.244;2023-02-23T15:18:57;25.90;;;9.63;;
77174;SDS011;66153;53.488;10.244;2023-02-23T15:21:23;25.92;;;9.00;;
77174;SDS011;66153;53.488;10.244;2023-02-23T15:23:50;20.55;;;8.38;;
77174;SDS011;66153;53.488;10.244;2023-02-23T15:26:17;22.17;;;7.63;;
77174;SDS011;66153;53.488;10.244;2023-02-23T15:28:44;23.73;;;7.45;;
77174;SDS011;66153;53.488;10.244;2023-02-23T15:31:11;19.02;;;7.18;;
77174;SDS011;66153;53.488;10.244;2023-02-23T15:33:37;24.02;;;7.95;;
77174;SDS011;66153;53.488;10.244;2023-02-23T15:36:07;21.60;;;7.80;;
77174;SDS011;66153;53.488;10.244;2023-02-23T15:38:43;22.23;;;8.52;;
77174;SDS011;66153;53.488;10.244;2023-02-23T15:41:12;20.88;;;6.95;;
77174;SDS011;66153;53.488;10.244;2023-02-23T15:43:40;18.52;;;6.90;;
77174;SDS011;66153;53.488;10.244;2023-02-23T15:46:07;18.38;;;7.60;;
77174;SDS011;66153;53.488;10.244;2023-02-23T15:48:41;18.27;;;6.38;;
77174;SDS011;66153;53.488;10.244;2023-02-23T15:51:14;19.83;;;7.50;;
77174;SDS011;66153;53.488;10.244;2023-02-23T15:56:13;20.90;;;7.85;;
77174;SDS011;66153;53.488;10.244;2023-02-23T15:58:46;20.35;;;6.80;;
77174;SDS011;66153;53.488;10.244;2023-02-23T16:01:20;19.83;;;7.20;;
77174;SDS011;66153;53.488;10.244;2023-02-23T16:06:53;19.98;;;6.90;;
77174;SDS011;66153;53.488;10.244;2023-02-23T16:11:52;20.33;;;7.35;;
77174;SDS011;66153;53.488;10.244;2023-02-23T16:14:20;21.70;;;7.65;;
77174;SDS011;66153;53.488;10.244;2023-02-23T16:16:47;24.42;;;8.00;;
77174;SDS011;66153;53.488;10.244;2023-02-23T16:19:17;20.77;;;7.55;;
77174;SDS011;66153;53.488;10.244;2023-02-23T16:21:50;24.05;;;8.25;;
77174;SDS011;66153;53.488;10.244;2023-02-23T16:24:19;21.40;;;8.05;;
77174;SDS011;66153;53.488;10.244;2023-02-23T16:26:57;25.65;;;8.20;;
77174;SDS011;66153;53.488;10.244;2023-02-23T16:29:32;26.50;;;7.15;;
77174;SDS011;66153;53.488;10.244;2023-02-23T16:32:09;25.17;;;7.45;;
77174;SDS011;66153;53.488;10.244;2023-02-23T16:34:44;24.50;;;8.25;;
77174;SDS011;66153;53.488;10.244;2023-02-23T16:37:20;27.05;;;8.65;;
77174;SDS011;66153;53.488;10.244;2023-02-23T16:39:50;25.63;;;7.60;;
77174;SDS011;66153;53.488;10.244;2023-02-23T16:44:42;27.52;;;8.18;;
77174;SDS011;66153;53.488;10.244;2023-02-23T16:47:30;27.45;;;8.48;;
77174;SDS011;66153;53.488;10.244;2023-02-23T16:49:57;25.42;;;8.10;;
77174;SDS011;66153;53.488;10.244;2023-02-23T16:52:23;25.13;;;8.30;;
77174;SDS011;66153;53.488;10.244;2023-02-23T16:54:50;27.33;;;8.45;;
77174;SDS011;66153;53.488;10.244;2023-02-23T16:57:20;23.77;;;7.63;;
77174;SDS011;66153;53.488;10.244;2023-02-23T16:59:49;26.10;;;7.53;;
77174;SDS011;66153;53.488;10.244;2023-02-23T17:02:16;22.70;;;7.75;;